createdAt,value
2019-05-03T00:01:02.373Z,77023.24
2019-05-03T00:03:32.045Z,77022.69
2019-05-03T00:06:03.201Z,77017.36
2019-05-03T00:08:33.346Z,77014.02
2019-05-03T00:11:02.985Z,77007.52
2019-05-03T00:13:32.638Z,77008.09
2019-05-03T00:16:06.541Z,77007.52
2019-05-03T00:18:36.008Z,77011.42
2019-05-03T00:21:05.390Z,77008.97
2019-05-03T00:23:34.818Z,77003.91
2019-05-03T00:26:04.280Z,76996.61
2019-05-03T00:28:33.795Z,76998.42
2019-05-03T00:31:03.295Z,76996.28
2019-05-03T00:33:32.694Z,76990.87
2019-05-03T00:36:11.684Z,76987.72
2019-05-03T00:38:41.901Z,76991.07
2019-05-03T00:41:12.192Z,76988.77
2019-05-03T00:43:42.355Z,76982.78
2019-05-03T00:46:12.662Z,76980.47
2019-05-03T00:48:42.999Z,76980.16
2019-05-03T00:51:12.854Z,76977.56
2019-05-03T00:53:42.494Z,76980.93
2019-05-03T00:56:12.296Z,76979.31
2019-05-03T00:58:49.159Z,76976.17
2019-05-03T01:01:19.029Z,76971.92
2019-05-03T01:03:48.453Z,76967.05
2019-05-03T01:06:17.958Z,76967.27
2019-05-03T01:08:47.419Z,76974.44
2019-05-03T01:11:16.898Z,76946.55
2019-05-03T01:13:46.396Z,76914.81
2019-05-03T01:16:17.434Z,76908.52
2019-05-03T01:18:46.859Z,76916.53
2019-05-03T01:21:16.346Z,76925.42
2019-05-03T01:23:45.719Z,76931.63
2019-05-03T01:26:15.171Z,76933.31
2019-05-03T01:28:44.625Z,76935.42
2019-05-03T01:31:14.022Z,76932.63
2019-05-03T01:33:43.458Z,76928.23
2019-05-03T01:36:12.946Z,76922.52
2019-05-03T01:38:42.471Z,76912.08
2019-05-03T01:41:12.283Z,76914.48
2019-05-03T01:43:41.981Z,76909.02
2019-05-03T01:46:11.985Z,76908.81
2019-05-03T01:48:55.180Z,76907.91
2019-05-03T01:51:26.226Z,76915.02
2019-05-03T01:53:55.731Z,76918.67
2019-05-03T01:56:25.152Z,76923.28
2019-05-03T01:58:54.658Z,76917.86
2019-05-03T02:01:28.406Z,76906.19
2019-05-03T02:04:05.477Z,76891.23
2019-05-03T02:06:34.966Z,76875.30
2019-05-03T02:09:06.891Z,76864.56
2019-05-03T02:11:36.269Z,76854.04
2019-05-03T02:14:06.369Z,76839.46
2019-05-03T02:16:35.752Z,76829.55
2019-05-03T02:19:05.229Z,76824.22
2019-05-03T02:21:34.717Z,76816.31
2019-05-03T02:24:04.195Z,76806.34
2019-05-03T02:26:33.661Z,76793.33
2019-05-03T02:29:03.162Z,76782.34
2019-05-03T02:31:32.986Z,76794.59
2019-05-03T02:34:03.589Z,76765.65
2019-05-03T02:36:33.864Z,76740.63
2019-05-03T02:39:05.013Z,76719.64
2019-05-03T02:41:34.506Z,76707.39
2019-05-03T02:44:06.296Z,76707.61
2019-05-03T02:46:45.660Z,76707.39
2019-05-03T02:49:25.895Z,76698.16
2019-05-03T02:51:55.733Z,76679.76
2019-05-03T02:54:26.829Z,76687.02
2019-05-03T02:56:56.841Z,76677.49
2019-05-03T02:59:26.614Z,76682.57
2019-05-03T03:01:56.497Z,76675.84
2019-05-03T03:04:26.698Z,76660.20
2019-05-03T03:06:56.373Z,76654.45
2019-05-03T03:09:29.025Z,76665.27
2019-05-03T03:11:59.203Z,76664.21
2019-05-03T03:14:28.669Z,76657.66
2019-05-03T03:16:58.299Z,76656.63
2019-05-03T03:19:28.767Z,76666.02
2019-05-03T03:21:59.852Z,76667.70
2019-05-03T03:24:29.363Z,76659.88
2019-05-03T03:26:59.740Z,76662.63
2019-05-03T03:29:29.191Z,76659.71
2019-05-03T03:32:11.036Z,76656.27
2019-05-03T03:35:10.640Z,76651.97
2019-05-03T03:37:35.377Z,76648.95
2019-05-03T03:40:06.331Z,76651.33
2019-05-03T03:42:36.169Z,76642.35
2019-05-03T03:45:06.497Z,76636.69
2019-05-03T03:47:40.647Z,76635.14
2019-05-03T03:50:10.831Z,76632.02
2019-05-03T03:52:41.615Z,76630.92
2019-05-03T03:55:11.116Z,76630.76
2019-05-03T03:57:40.638Z,76625.18
2019-05-03T04:00:10.228Z,76623.16
2019-05-03T04:02:40.010Z,76626.03
2019-05-03T04:05:10.646Z,76628.23
2019-05-03T04:07:40.104Z,76628.98
2019-05-03T04:10:09.573Z,76629.20
2019-05-03T04:12:39.627Z,76624.87
2019-05-03T04:15:25.796Z,76630.86
2019-05-03T04:17:58.149Z,76634.52
2019-05-03T04:20:29.183Z,76639.48
2019-05-03T04:22:58.681Z,76645.34
2019-05-03T04:25:28.460Z,76648.87
2019-05-03T04:27:57.925Z,76647.28
2019-05-03T04:30:27.411Z,76651.49
2019-05-03T04:32:56.882Z,76658.69
2019-05-03T04:35:26.892Z,76659.03
2019-05-03T04:37:56.553Z,76660.13
2019-05-03T04:40:26.407Z,76659.36
2019-05-03T04:42:56.101Z,76660.00
2019-05-03T04:45:25.941Z,76672.77
2019-05-03T04:47:56.194Z,76679.41
2019-05-03T04:50:26.106Z,76684.08
2019-05-03T04:52:56.654Z,76694.05
2019-05-03T04:55:26.926Z,76705.68
2019-05-03T04:57:56.716Z,76715.46
2019-05-03T05:00:26.264Z,76724.51
2019-05-03T05:02:55.727Z,76733.70
2019-05-03T05:05:26.221Z,76736.98
2019-05-03T05:07:56.102Z,76738.01
2019-05-03T05:10:26.290Z,76744.20
2019-05-03T05:12:56.110Z,76752.95
2019-05-03T05:15:26.364Z,76762.13
2019-05-03T05:18:16.036Z,76776.84
2019-05-03T05:20:47.215Z,76786.89
2019-05-03T05:23:16.709Z,76796.00
2019-05-03T05:26:03.104Z,76808.50
2019-05-03T05:28:37.163Z,76817.55
2019-05-03T05:31:06.665Z,76825.48
2019-05-03T05:33:36.154Z,76835.97
2019-05-03T05:36:05.668Z,76839.73
2019-05-03T05:38:35.162Z,76860.69
2019-05-03T05:41:05.288Z,76849.81
2019-05-03T05:43:35.736Z,76844.15
2019-05-03T05:46:05.791Z,76831.02
2019-05-03T05:48:45.028Z,76813.21
2019-05-03T05:51:15.964Z,76808.38
2019-05-03T05:53:45.210Z,76810.91
2019-05-03T05:56:18.948Z,76796.61
2019-05-03T05:58:55.251Z,76809.65
2019-05-03T06:01:25.769Z,76807.22
2019-05-03T06:03:55.254Z,76783.33
2019-05-03T06:06:28.996Z,76783.12
2019-05-03T06:09:00.052Z,76779.27
2019-05-03T06:11:31.038Z,76773.11
2019-05-03T06:14:02.104Z,76788.83
2019-05-03T06:16:36.101Z,76784.88
2019-05-03T06:19:07.190Z,76788.70
2019-05-03T06:21:38.179Z,76786.83
2019-05-03T06:24:09.236Z,76793.41
2019-05-03T06:26:40.307Z,76787.66
2019-05-03T06:29:09.781Z,76799.14
2019-05-03T06:31:55.908Z,76801.95
2019-05-03T06:34:26.308Z,76828.24
2019-05-03T06:36:57.372Z,76808.67
2019-05-03T06:39:26.778Z,76796.73
2019-05-03T06:41:56.488Z,76790.25
2019-05-03T06:44:28.644Z,76780.86
2019-05-03T06:47:01.194Z,76782.26
2019-05-03T06:49:28.311Z,76780.16
2019-05-03T06:51:57.802Z,76777.37
2019-05-03T06:54:29.988Z,76762.03
2019-05-03T06:57:00.075Z,76753.21
2019-05-03T06:59:35.742Z,76755.52
2019-05-03T07:02:06.673Z,76754.38
2019-05-03T07:04:40.962Z,76746.95
2019-05-03T07:07:12.044Z,76756.00
2019-05-03T07:09:44.482Z,76782.71
2019-05-03T07:12:14.830Z,76796.61
2019-05-03T07:14:45.062Z,76800.13
2019-05-03T07:17:14.645Z,76800.34
2019-05-03T07:19:45.862Z,76785.69
2019-05-03T07:22:15.385Z,76777.45
2019-05-03T07:24:45.505Z,76799.02
2019-05-03T07:27:15.864Z,76818.64
2019-05-03T07:29:45.537Z,76838.87
2019-05-03T07:32:15.630Z,76847.97
2019-05-03T07:34:45.418Z,76832.67
2019-05-03T07:37:14.933Z,76836.95
2019-05-03T07:39:45.300Z,76836.84
2019-05-03T07:42:15.658Z,76829.95
2019-05-03T07:44:45.234Z,76852.94
2019-05-03T07:47:14.922Z,76852.94
2019-05-03T07:49:44.822Z,76872.42
2019-05-03T07:52:14.768Z,76867.08
2019-05-03T07:54:45.156Z,76871.84
2019-05-03T07:57:35.655Z,76875.80
2019-05-03T08:00:07.338Z,76869.83
2019-05-03T08:02:36.793Z,76872.78
2019-05-03T08:05:09.073Z,76888.52
2019-05-03T08:07:38.560Z,76928.26
2019-05-03T08:10:08.833Z,76951.91
2019-05-03T08:12:38.413Z,76972.38
2019-05-03T08:15:07.883Z,77010.22
2019-05-03T08:17:37.281Z,77039.21
2019-05-03T08:20:08.734Z,77040.06
2019-05-03T08:22:38.219Z,77051.89
2019-05-03T08:25:08.389Z,77043.31
2019-05-03T08:27:37.890Z,77040.03
2019-05-03T08:30:10.508Z,77038.44
2019-05-03T08:32:44.596Z,77025.61
2019-05-03T08:35:18.709Z,77013.71
2019-05-03T08:37:49.784Z,77020.66
2019-05-03T08:40:20.160Z,77048.77
2019-05-03T08:42:49.633Z,77078.09
2019-05-03T08:45:19.166Z,77101.19
2019-05-03T08:47:48.796Z,77091.05
2019-05-03T08:50:21.396Z,77081.98
2019-05-03T08:52:49.489Z,77071.44
2019-05-03T08:55:18.895Z,77076.82
2019-05-03T08:57:48.314Z,77094.59
2019-05-03T09:00:19.376Z,77119.44
2019-05-03T09:02:48.854Z,77143.61
2019-05-03T09:05:18.682Z,77188.02
2019-05-03T09:07:50.684Z,77232.16
2019-05-03T09:10:24.958Z,77252.19
2019-05-03T09:13:14.867Z,77290.19
2019-05-03T09:15:46.265Z,77321.52
2019-05-03T09:18:17.507Z,77355.38
2019-05-03T09:20:46.961Z,77387.25
2019-05-03T09:23:16.749Z,77426.30
2019-05-03T09:25:46.250Z,77469.63
2019-05-03T09:28:15.638Z,77527.23
2019-05-03T09:30:45.060Z,77558.53
2019-05-03T09:33:15.393Z,77581.92
2019-05-03T09:35:45.727Z,77578.39
2019-05-03T09:38:15.339Z,77548.98
2019-05-03T09:40:45.491Z,77518.03
2019-05-03T09:43:15.221Z,77540.84
2019-05-03T09:45:45.762Z,77572.80
2019-05-03T09:48:15.455Z,77590.20
2019-05-03T09:50:45.306Z,77608.39
2019-05-03T09:53:16.730Z,77634.81
2019-05-03T09:55:46.224Z,77659.76
2019-05-03T09:58:15.694Z,77701.55
2019-05-03T10:00:46.015Z,77734.16
2019-05-03T10:03:15.430Z,77738.36
2019-05-03T10:05:45.826Z,77746.84
2019-05-03T10:08:15.859Z,77758.15
2019-05-03T10:11:05.283Z,77797.63
2019-05-03T10:13:35.457Z,77913.33
2019-05-03T10:16:05.986Z,77968.66
2019-05-03T10:18:36.287Z,78000.66
2019-05-03T10:21:05.989Z,77994.09
2019-05-03T10:23:37.184Z,77947.14
2019-05-03T10:26:06.878Z,77888.66
2019-05-03T10:28:36.353Z,77872.28
2019-05-03T10:31:07.820Z,77880.72
2019-05-03T10:33:41.639Z,77886.81
2019-05-03T10:36:11.049Z,77858.72
2019-05-03T10:38:40.534Z,77857.13
2019-05-03T10:41:10.030Z,77808.64
2019-05-03T10:43:39.432Z,77714.82
2019-05-03T10:46:08.901Z,77572.25
2019-05-03T10:48:38.403Z,77466.08
2019-05-03T10:51:07.875Z,77374.16
2019-05-03T10:53:38.911Z,77353.78
2019-05-03T10:56:24.544Z,77331.53
2019-05-03T10:58:54.941Z,77302.84
2019-05-03T11:01:31.998Z,77269.61
2019-05-03T11:04:01.512Z,77232.06
2019-05-03T11:06:30.967Z,77203.50
2019-05-03T11:09:02.002Z,77173.45
2019-05-03T11:11:31.496Z,77158.94
2019-05-03T11:14:00.980Z,77135.98
2019-05-03T11:16:30.445Z,77119.47
2019-05-03T11:18:59.872Z,77087.86
2019-05-03T11:21:31.163Z,77073.75
2019-05-03T11:24:00.544Z,77062.75
2019-05-03T11:26:30.057Z,77062.48
2019-05-03T11:29:00.643Z,77058.16
2019-05-03T11:31:48.575Z,77035.53
2019-05-03T11:34:22.379Z,77034.53
2019-05-03T11:37:08.733Z,77019.59
2019-05-03T11:39:38.219Z,77041.55
2019-05-03T11:42:07.680Z,77044.92
2019-05-03T11:44:40.161Z,77027.91
2019-05-03T11:47:09.692Z,76990.64
2019-05-03T11:49:39.282Z,77003.67
2019-05-03T11:52:08.757Z,76998.79
2019-05-03T11:54:38.236Z,76987.08
2019-05-03T11:57:09.300Z,76962.21
2019-05-03T11:59:38.779Z,76951.91
2019-05-03T12:02:21.985Z,76940.65
2019-05-03T12:04:51.462Z,76894.58
2019-05-03T12:07:38.891Z,76887.52
2019-05-03T12:10:13.581Z,76842.95
2019-05-03T12:12:36.322Z,76813.01
2019-05-03T12:15:07.414Z,76817.06
2019-05-03T12:17:50.727Z,76821.34
2019-05-03T12:20:11.041Z,76819.86
2019-05-03T12:22:41.455Z,76806.28
2019-05-03T12:25:12.110Z,76801.89
2019-05-03T12:27:41.921Z,76809.65
2019-05-03T12:30:11.397Z,76811.30
2019-05-03T12:32:40.869Z,76818.11
2019-05-03T12:35:10.353Z,76838.98
2019-05-03T12:37:39.827Z,76858.66
2019-05-03T12:40:10.882Z,76881.88
2019-05-03T12:42:40.298Z,76905.33
2019-05-03T12:45:09.693Z,76955.05
2019-05-03T12:47:39.092Z,76998.81
2019-05-03T12:50:08.576Z,77047.64
2019-05-03T12:52:49.591Z,77092.36
2019-05-03T12:55:09.015Z,77144.98
2019-05-03T12:57:38.524Z,77199.19
2019-05-03T13:00:15.684Z,77252.91
2019-05-03T13:03:01.692Z,77326.56
2019-05-03T13:05:31.263Z,77399.92
2019-05-03T13:08:22.010Z,77479.30
2019-05-03T13:10:51.473Z,77585.75
2019-05-03T13:13:20.957Z,77629.16
2019-05-03T13:15:50.378Z,77645.14
2019-05-03T13:18:19.855Z,77662.13
2019-05-03T13:20:49.253Z,77645.59
2019-05-03T13:23:18.756Z,77651.53
2019-05-03T13:25:48.256Z,77645.69
2019-05-03T13:28:17.665Z,77652.25
2019-05-03T13:30:47.161Z,77647.01
2019-05-03T13:33:16.564Z,77619.40
2019-05-03T13:35:46.038Z,77591.36
2019-05-03T13:38:15.544Z,77543.56
2019-05-03T13:40:45.411Z,77496.61
2019-05-03T13:43:15.172Z,77459.28
2019-05-03T13:45:45.073Z,77436.69
2019-05-03T13:48:15.536Z,77407.90
2019-05-03T13:50:45.938Z,77411.33
2019-05-03T13:53:16.156Z,77362.22
2019-05-03T13:55:45.817Z,77360.05
2019-05-03T13:58:15.283Z,77367.44
2019-05-03T14:00:45.354Z,77365.59
2019-05-03T14:03:15.395Z,77397.16
2019-05-03T14:05:44.997Z,77470.03
2019-05-03T14:08:15.648Z,77517.95
2019-05-03T14:10:45.783Z,77535.49
2019-05-03T14:13:15.306Z,77527.82
2019-05-03T14:15:45.342Z,77533.73
2019-05-03T14:18:15.476Z,77568.16
2019-05-03T14:20:59.025Z,77588.88
2019-05-03T14:23:28.489Z,77633.80
2019-05-03T14:25:57.958Z,77655.96
2019-05-03T14:28:27.460Z,77668.67
2019-05-03T14:30:57.465Z,77758.27
2019-05-03T14:33:40.908Z,77823.39
2019-05-03T14:36:31.586Z,77848.09
2019-05-03T14:39:21.769Z,77816.64
2019-05-03T14:42:06.473Z,77810.35
2019-05-03T14:44:55.167Z,77826.97
2019-05-03T14:47:25.209Z,77801.65
2019-05-03T14:49:54.820Z,77805.23
2019-05-03T14:52:25.229Z,77828.61
2019-05-03T14:54:58.189Z,77865.73
2019-05-03T14:57:29.248Z,77871.97
2019-05-03T15:00:17.393Z,77841.45
2019-05-03T15:02:51.347Z,77742.39
2019-05-03T15:05:20.815Z,77623.47
2019-05-03T15:07:50.279Z,77535.26
2019-05-03T15:10:19.793Z,77466.25
2019-05-03T15:12:49.262Z,77410.52
2019-05-03T15:15:18.726Z,77375.86
2019-05-03T15:17:48.238Z,77356.25
2019-05-03T15:20:17.699Z,77307.56
2019-05-03T15:22:47.095Z,77274.78
2019-05-03T15:25:16.526Z,77234.20
2019-05-03T15:27:48.563Z,77205.51
2019-05-03T15:30:18.086Z,77182.55
2019-05-03T15:32:57.112Z,77164.20
2019-05-03T15:35:18.783Z,77149.53
2019-05-03T15:37:48.173Z,77137.73
2019-05-03T15:40:17.798Z,77145.75
2019-05-03T15:42:48.849Z,77141.89
2019-05-03T15:45:36.065Z,77126.05
2019-05-03T15:48:16.180Z,77112.95
2019-05-03T15:50:45.593Z,77113.44
2019-05-03T15:53:15.260Z,77085.17
2019-05-03T15:55:44.811Z,77065.48
2019-05-03T15:58:15.366Z,77050.25
2019-05-03T16:00:46.908Z,77025.66
2019-05-03T16:03:16.371Z,77011.80
2019-05-03T16:05:45.794Z,77003.66
2019-05-03T16:08:15.465Z,76991.26
2019-05-03T16:10:45.678Z,76985.70
2019-05-03T16:13:15.415Z,76940.73
2019-05-03T16:15:44.746Z,76907.37
2019-05-03T16:18:14.813Z,76883.33
2019-05-03T16:20:45.086Z,76865.95
2019-05-03T16:23:15.410Z,76844.68
2019-05-03T16:25:45.466Z,76826.16
2019-05-03T16:28:16.547Z,76794.75
2019-05-03T16:30:47.584Z,76768.01
2019-05-03T16:33:27.277Z,76750.80
2019-05-03T16:35:48.286Z,76737.45
2019-05-03T16:38:17.679Z,76731.45
2019-05-03T16:40:47.106Z,76722.42
2019-05-03T16:43:16.581Z,76706.08
2019-05-03T16:45:46.037Z,76699.60
2019-05-03T16:48:18.280Z,76705.08
2019-05-03T16:50:46.771Z,76710.95
2019-05-03T16:53:16.276Z,76713.97
2019-05-03T16:55:45.759Z,76722.30
2019-05-03T16:58:16.897Z,76721.39
2019-05-03T17:00:46.599Z,76726.60
2019-05-03T17:03:17.668Z,76724.42
2019-05-03T17:05:48.734Z,76729.87
2019-05-03T17:08:22.791Z,76736.16
2019-05-03T17:10:54.506Z,76736.90
2019-05-03T17:13:25.270Z,76739.41
2019-05-03T17:15:54.842Z,76740.83
2019-05-03T17:18:24.699Z,76738.30
2019-05-03T17:20:54.792Z,76729.17
2019-05-03T17:23:24.675Z,76722.52
2019-05-03T17:25:54.419Z,76714.68
2019-05-03T17:28:24.791Z,76704.61
2019-05-03T17:30:55.280Z,76698.23
2019-05-03T17:33:25.335Z,76689.24
2019-05-03T17:35:54.845Z,76686.66
2019-05-03T17:38:24.315Z,76689.89
2019-05-03T17:41:11.703Z,76681.25
2019-05-03T17:43:48.702Z,76671.66
2019-05-03T17:46:18.254Z,76665.34
2019-05-03T17:48:47.724Z,76672.02
2019-05-03T17:51:35.760Z,76675.38
2019-05-03T17:54:06.991Z,76671.53
2019-05-03T17:56:55.206Z,76666.60
2019-05-03T17:59:26.548Z,76668.91
2019-05-03T18:02:15.309Z,76655.95
2019-05-03T18:04:47.079Z,76669.56
2019-05-03T18:07:27.089Z,76664.05
2019-05-03T18:09:58.507Z,76661.13
2019-05-03T18:12:28.070Z,76652.70
2019-05-03T18:14:57.938Z,76635.61
2019-05-03T18:17:27.437Z,76623.09
2019-05-03T18:19:57.497Z,76623.02
2019-05-03T18:22:27.251Z,76618.77
2019-05-03T18:24:56.744Z,76602.08
2019-05-03T18:27:26.147Z,76599.28
2019-05-03T18:29:55.640Z,76591.39
2019-05-03T18:32:25.236Z,76584.27
2019-05-03T18:34:54.829Z,76585.64
2019-05-03T18:37:24.563Z,76585.64
2019-05-03T18:39:54.695Z,76585.56
2019-05-03T18:42:30.752Z,76586.17
2019-05-03T18:45:04.646Z,76583.42
2019-05-03T18:47:34.444Z,76573.75
2019-05-03T18:50:06.224Z,76570.22
2019-05-03T18:52:35.824Z,76570.63
2019-05-03T18:55:07.011Z,76566.20
2019-05-03T18:57:36.478Z,76563.28
2019-05-03T19:00:09.241Z,76566.91
2019-05-03T19:02:38.719Z,76567.19
2019-05-03T19:05:08.702Z,76567.44
2019-05-03T19:07:42.525Z,76568.63
2019-05-03T19:10:19.558Z,76573.91
2019-05-03T19:13:04.561Z,76578.44
2019-05-03T19:15:34.750Z,76580.70
2019-05-03T19:18:05.913Z,76585.38
2019-05-03T19:20:35.420Z,76588.90
2019-05-03T19:23:05.114Z,76589.09
2019-05-03T19:25:46.220Z,76582.82
2019-05-03T19:28:07.881Z,76573.38
2019-05-03T19:30:38.502Z,76574.27
2019-05-03T19:33:07.908Z,76573.05
2019-05-03T19:35:37.340Z,76573.45
2019-05-03T19:38:06.753Z,76575.62
2019-05-03T19:40:36.329Z,76576.70
2019-05-03T19:43:05.822Z,76584.84
2019-05-03T19:45:35.422Z,76576.33
2019-05-03T19:48:05.430Z,76572.73
2019-05-03T19:50:36.171Z,76569.70
2019-05-03T19:53:19.345Z,76574.72
2019-05-03T19:55:50.637Z,76579.38
2019-05-03T19:58:20.043Z,76592.45
2019-05-03T20:01:05.480Z,76590.56
2019-05-03T20:03:45.491Z,76579.26
2019-05-03T20:06:16.576Z,76568.57
2019-05-03T20:08:53.399Z,76562.81
2019-05-03T20:11:22.844Z,76555.33
2019-05-03T20:13:52.199Z,76555.27
2019-05-03T20:16:21.678Z,76549.02
2019-05-03T20:18:51.203Z,76544.23
2019-05-03T20:21:20.687Z,76544.03
2019-05-03T20:23:50.159Z,76537.31
2019-05-03T20:26:19.653Z,76531.94
2019-05-03T20:28:49.128Z,76537.56
2019-05-03T20:31:18.590Z,76533.55
2019-05-03T20:33:48.094Z,76530.84
2019-05-03T20:36:17.585Z,76528.66
2019-05-03T20:38:47.111Z,76539.06
2019-05-03T20:41:16.622Z,76537.69
2019-05-03T20:44:05.314Z,76523.91
2019-05-03T20:46:39.002Z,76499.77
2019-05-03T20:49:10.217Z,76468.29
2019-05-03T20:51:39.695Z,76426.31
2019-05-03T20:54:09.251Z,76388.54
2019-05-03T20:56:38.642Z,76382.64
2019-05-03T20:59:08.113Z,76361.34
2019-05-03T21:01:37.618Z,76363.31
2019-05-03T21:04:07.036Z,76355.84
2019-05-03T21:06:36.511Z,76340.23
2019-05-03T21:09:07.602Z,76341.66
2019-05-03T21:11:37.102Z,76345.02
2019-05-03T21:14:06.565Z,76354.11
2019-05-03T21:16:37.632Z,76349.33
2019-05-03T21:19:08.668Z,76342.05
2019-05-03T21:21:44.506Z,76337.20
2019-05-03T21:24:15.717Z,76337.03
2019-05-03T21:26:45.221Z,76332.36
2019-05-03T21:29:15.213Z,76329.94
2019-05-03T21:31:44.853Z,76326.63
2019-05-03T21:34:14.852Z,76325.34
2019-05-03T21:36:45.299Z,76332.61
2019-05-03T21:39:15.023Z,76330.51
2019-05-03T21:41:45.056Z,76332.03
2019-05-03T21:44:31.379Z,76333.61
2019-05-03T21:47:18.732Z,76328.44
2019-05-03T21:49:49.810Z,76324.63
2019-05-03T21:52:19.261Z,76321.95
2019-05-03T21:54:48.775Z,76316.93
2019-05-03T21:57:18.175Z,76317.97
2019-05-03T21:59:47.644Z,76320.23
2019-05-03T22:02:17.235Z,76316.97
2019-05-03T22:04:46.629Z,76320.97
2019-05-03T22:07:16.030Z,76328.14
2019-05-03T22:09:45.459Z,76315.97
2019-05-03T22:12:14.930Z,76318.65
2019-05-03T22:14:45.930Z,76309.17
2019-05-03T22:17:34.553Z,76298.45
2019-05-03T22:20:07.769Z,76288.77
2019-05-03T22:22:38.783Z,76289.50
2019-05-03T22:25:09.762Z,76287.11
2019-05-03T22:27:45.547Z,76274.89
2019-05-03T22:30:15.106Z,76270.22
2019-05-03T22:32:44.630Z,76275.95
2019-05-03T22:35:15.662Z,76274.63
2019-05-03T22:37:45.283Z,76268.05
2019-05-03T22:40:14.762Z,76261.94
2019-05-03T22:42:44.817Z,76259.16
2019-05-03T22:45:14.416Z,76254.00
2019-05-03T22:47:44.564Z,76254.97
2019-05-03T22:50:14.904Z,76250.48
2019-05-03T22:52:45.509Z,76243.69
2019-05-03T22:55:15.346Z,76238.75
2019-05-03T22:57:45.144Z,76237.52
2019-05-03T23:00:14.799Z,76239.45
2019-05-03T23:02:45.547Z,76238.56
2019-05-03T23:05:15.312Z,76234.06
2019-05-03T23:07:46.948Z,76229.80
2019-05-03T23:10:17.447Z,76238.48
2019-05-03T23:12:47.088Z,76235.09
2019-05-03T23:15:16.553Z,76225.92
2019-05-03T23:17:46.003Z,76221.76
2019-05-03T23:20:19.760Z,76215.01
2019-05-03T23:22:49.229Z,76208.20
2019-05-03T23:25:18.818Z,76208.91
2019-05-03T23:27:48.297Z,76204.93
2019-05-03T23:30:17.864Z,76200.97
2019-05-03T23:32:47.382Z,76201.77
2019-05-03T23:35:16.869Z,76199.48
2019-05-03T23:37:46.446Z,76196.86
2019-05-03T23:40:15.909Z,76200.61
2019-05-03T23:42:45.347Z,76214.33
2019-05-03T23:45:14.950Z,76219.41
2019-05-03T23:47:48.950Z,76218.73
2019-05-03T23:50:20.036Z,76220.63
2019-05-03T23:52:49.517Z,76217.44
2019-05-03T23:55:29.318Z,76222.28
2019-05-03T23:57:58.806Z,76208.84
